createdAt,value
2019-03-08T00:03:35.808Z,80.67
2019-03-08T00:06:05.231Z,80.43
2019-03-08T00:08:45.910Z,80.32
2019-03-08T00:11:15.641Z,80.33
2019-03-08T00:13:45.040Z,80.42
2019-03-08T00:16:14.453Z,80.45
2019-03-08T00:19:04.211Z,80.67
2019-03-08T00:21:33.678Z,80.71
2019-03-08T00:24:03.169Z,80.79
2019-03-08T00:26:51.553Z,80.86
2019-03-08T00:29:21.327Z,81.12
2019-03-08T00:31:50.731Z,81.19
2019-03-08T00:34:20.279Z,81.12
2019-03-08T00:36:49.879Z,81.06
2019-03-08T00:39:19.285Z,80.98
2019-03-08T00:44:23.275Z,81.03
2019-03-08T00:47:03.906Z,81.11
2019-03-08T00:49:33.434Z,81.18
2019-03-08T00:52:02.834Z,81.22
2019-03-08T00:54:32.235Z,81.23
2019-03-08T00:57:01.643Z,81.23
2019-03-08T00:59:31.060Z,81.13
2019-03-08T01:02:00.535Z,81.20
2019-03-08T01:04:29.939Z,81.33
2019-03-08T01:06:59.396Z,81.26
2019-03-08T01:09:28.877Z,81.18
2019-03-08T01:11:58.282Z,81.04
2019-03-08T01:14:27.807Z,81.11
2019-03-08T01:17:16.246Z,80.80
2019-03-08T01:20:00.830Z,80.80
2019-03-08T01:22:30.283Z,80.83
2019-03-08T01:24:59.700Z,80.65
2019-03-08T01:30:17.572Z,80.34
2019-03-08T01:32:46.944Z,80.33
2019-03-08T01:35:16.367Z,80.23
2019-03-08T01:37:45.872Z,80.22
2019-03-08T01:40:15.381Z,80.18
2019-03-08T01:42:44.763Z,80.12
2019-03-08T01:45:33.232Z,80.18
2019-03-08T01:48:03.386Z,80.16
2019-03-08T01:50:32.752Z,80.12
2019-03-08T01:53:02.313Z,80.16
2019-03-08T01:55:31.746Z,80.18
2019-03-08T01:58:01.125Z,80.34
2019-03-08T02:00:30.527Z,80.47
2019-03-08T02:03:14.749Z,80.52
2019-03-08T02:05:44.201Z,80.67
2019-03-08T02:08:13.689Z,80.74
2019-03-08T02:10:43.050Z,80.84
2019-03-08T02:13:12.549Z,80.94
2019-03-08T02:15:43.424Z,81.03
2019-03-08T02:18:13.200Z,81.19
2019-03-08T02:20:54.418Z,81.23
2019-03-08T02:23:23.814Z,81.38
2019-03-08T02:25:53.662Z,81.59
2019-03-08T02:28:23.272Z,81.85
2019-03-08T02:30:52.793Z,81.85
2019-03-08T02:33:22.280Z,81.93
2019-03-08T02:35:52.441Z,82.00
2019-03-08T02:38:21.934Z,82.06
2019-03-08T02:40:51.339Z,82.11
2019-03-08T02:43:20.893Z,82.24
2019-03-08T02:45:57.776Z,82.39
2019-03-08T02:48:27.280Z,82.50
2019-03-08T02:50:56.773Z,82.54
2019-03-08T02:53:45.912Z,82.57
2019-03-08T02:56:27.385Z,82.63
2019-03-08T02:59:15.668Z,82.54
2019-03-08T03:01:45.817Z,82.50
2019-03-08T03:04:15.228Z,82.51
2019-03-08T03:06:44.702Z,82.38
2019-03-08T03:09:14.264Z,82.39
2019-03-08T03:11:43.765Z,82.30
2019-03-08T03:14:13.248Z,82.34
2019-03-08T03:16:42.677Z,82.45
2019-03-08T03:19:12.069Z,82.50
2019-03-08T03:21:41.621Z,82.56
2019-03-08T03:24:50.429Z,82.57
2019-03-08T03:27:31.048Z,82.57
2019-03-08T03:30:00.580Z,82.54
2019-03-08T03:32:30.011Z,82.52
2019-03-08T03:35:18.266Z,82.50
2019-03-08T03:37:48.191Z,82.48
2019-03-08T03:40:17.573Z,82.49
2019-03-08T03:42:47.348Z,82.40
2019-03-08T03:45:19.411Z,82.39
2019-03-08T03:47:49.261Z,82.41
2019-03-08T03:50:18.955Z,82.50
2019-03-08T03:52:48.368Z,82.47
2019-03-08T03:55:18.003Z,82.44
2019-03-08T03:57:49.723Z,82.43
2019-03-08T04:00:39.643Z,82.49
2019-03-08T04:03:09.220Z,82.50
2019-03-08T04:05:39.163Z,82.50
2019-03-08T04:08:09.024Z,82.54
2019-03-08T04:10:38.451Z,82.58
2019-03-08T04:13:08.032Z,82.46
2019-03-08T04:15:37.581Z,82.49
2019-03-08T04:18:06.995Z,82.42
2019-03-08T04:20:36.868Z,82.35
2019-03-08T04:23:06.251Z,82.29
2019-03-08T04:25:35.664Z,82.33
2019-03-08T04:28:16.721Z,82.40
2019-03-08T04:30:47.222Z,82.45
2019-03-08T04:33:16.592Z,82.47
2019-03-08T04:35:46.118Z,82.53
2019-03-08T04:38:15.523Z,82.53
2019-03-08T04:40:44.904Z,82.55
2019-03-08T04:43:14.305Z,82.57
2019-03-08T04:45:43.803Z,82.53
2019-03-08T04:48:32.059Z,82.54
2019-03-08T04:51:01.526Z,82.58
2019-03-08T04:53:30.965Z,82.53
2019-03-08T04:56:00.409Z,82.51
2019-03-08T04:58:30.066Z,82.40
2019-03-08T05:00:59.467Z,82.52
2019-03-08T05:03:29.038Z,82.51
2019-03-08T05:08:33.821Z,82.65
2019-03-08T05:11:03.623Z,82.62
2019-03-08T05:13:32.980Z,82.72
2019-03-08T05:16:09.497Z,82.89
2019-03-08T05:18:39.006Z,82.88
2019-03-08T05:21:08.674Z,82.94
2019-03-08T05:23:38.178Z,82.90
2019-03-08T05:26:08.050Z,82.84
2019-03-08T05:28:49.240Z,82.83
2019-03-08T05:31:20.560Z,82.73
2019-03-08T05:33:50.231Z,82.73
2019-03-08T05:36:19.900Z,82.60
2019-03-08T05:38:49.302Z,82.53
2019-03-08T05:41:18.860Z,82.44
2019-03-08T05:44:07.140Z,82.27
2019-03-08T05:46:39.390Z,82.21
2019-03-08T05:49:09.934Z,82.29
2019-03-08T05:51:39.419Z,82.16
2019-03-08T05:54:10.693Z,81.94
2019-03-08T05:56:43.022Z,81.96
2019-03-08T05:59:31.335Z,81.79
2019-03-08T06:02:00.853Z,81.76
2019-03-08T06:04:30.245Z,81.87
2019-03-08T06:06:59.787Z,81.76
2019-03-08T06:09:48.168Z,81.77
2019-03-08T06:12:17.688Z,81.90
2019-03-08T06:14:47.072Z,82.10
2019-03-08T06:17:16.481Z,82.21
2019-03-08T06:19:45.884Z,82.27
2019-03-08T06:22:15.297Z,82.27
2019-03-08T06:24:44.690Z,82.39
2019-03-08T06:27:14.138Z,82.46
2019-03-08T06:29:43.937Z,82.50
2019-03-08T06:32:13.335Z,82.58
2019-03-08T06:34:42.760Z,82.58
2019-03-08T06:37:12.139Z,82.56
2019-03-08T06:39:41.646Z,82.67
2019-03-08T06:44:46.013Z,82.68
2019-03-08T06:47:34.639Z,82.92
2019-03-08T06:50:24.487Z,82.95
2019-03-08T06:52:54.248Z,82.88
2019-03-08T06:55:23.754Z,82.79
2019-03-08T06:58:00.502Z,82.77
2019-03-08T07:00:48.780Z,82.75
2019-03-08T07:03:29.970Z,82.68
2019-03-08T07:05:59.510Z,82.69
2019-03-08T07:08:29.205Z,82.75
2019-03-08T07:11:37.881Z,82.66
2019-03-08T07:14:07.638Z,82.52
2019-03-08T07:16:40.077Z,82.29
2019-03-08T07:19:09.520Z,82.25
2019-03-08T07:21:58.161Z,82.25
2019-03-08T07:24:46.948Z,82.04
2019-03-08T07:27:23.800Z,82.06
2019-03-08T07:30:31.027Z,81.76
2019-03-08T07:33:07.522Z,81.80
2019-03-08T07:38:55.181Z,81.60
2019-03-08T07:41:43.701Z,80.83
2019-03-08T07:44:38.618Z,80.67
2019-03-08T07:47:27.210Z,80.37
2019-03-08T07:55:55.282Z,79.30
2019-03-08T07:58:47.242Z,78.89
2019-03-08T08:07:07.727Z,78.20
2019-03-08T08:09:56.095Z,78.74
2019-03-08T08:12:44.810Z,77.79
2019-03-08T08:18:27.407Z,77.02
2019-03-08T08:24:16.819Z,76.72
2019-03-08T08:27:19.666Z,76.35
2019-03-08T08:29:55.391Z,75.98
2019-03-08T08:32:43.743Z,75.36
2019-03-08T08:35:33.946Z,75.40
2019-03-08T08:38:22.252Z,75.68
2019-03-08T08:41:11.733Z,75.65
2019-03-08T08:43:59.976Z,75.27
2019-03-08T08:47:10.989Z,74.91
2019-03-08T08:49:54.810Z,74.43
2019-03-08T08:52:40.119Z,74.34
2019-03-08T08:55:28.581Z,73.62
2019-03-08T08:58:17.222Z,73.70
2019-03-08T09:01:08.024Z,72.89
2019-03-08T09:06:45.732Z,73.27
2019-03-08T09:09:34.120Z,72.95
2019-03-08T09:12:22.396Z,72.80
2019-03-08T09:15:09.276Z,71.92
2019-03-08T09:18:17.921Z,71.54
2019-03-08T09:21:06.225Z,71.50
2019-03-08T09:23:54.597Z,71.49
2019-03-08T09:26:44.589Z,71.41
2019-03-08T09:29:41.008Z,71.67
2019-03-08T09:32:26.364Z,71.58
2019-03-08T09:38:07.525Z,71.11
2019-03-08T09:40:56.891Z,71.15
2019-03-08T09:43:41.541Z,71.34
2019-03-08T09:46:29.917Z,71.18
2019-03-08T09:49:09.766Z,71.35
2019-03-08T09:51:44.821Z,71.85
2019-03-08T09:54:33.128Z,71.87
2019-03-08T09:57:18.905Z,72.63
2019-03-08T10:00:09.185Z,72.39
2019-03-08T10:02:57.444Z,72.10
2019-03-08T10:05:37.189Z,72.35
2019-03-08T10:08:25.460Z,73.32
2019-03-08T10:11:17.031Z,73.28
2019-03-08T10:13:52.527Z,73.71
2019-03-08T10:19:11.280Z,74.05
2019-03-08T10:21:59.581Z,73.61
2019-03-08T10:24:48.231Z,74.10
2019-03-08T10:27:38.406Z,74.25
2019-03-08T10:35:59.116Z,73.95
2019-03-08T10:38:51.286Z,74.29
2019-03-08T10:41:47.515Z,74.32
2019-03-08T10:44:36.163Z,74.13
2019-03-08T10:50:23.777Z,73.94
2019-03-08T10:53:12.136Z,74.53
2019-03-08T10:56:00.464Z,74.64
2019-03-08T10:58:48.729Z,74.61
2019-03-08T11:01:37.043Z,75.31
2019-03-08T11:07:16.173Z,76.32
2019-03-08T11:10:04.495Z,76.20
2019-03-08T11:12:52.828Z,76.40
2019-03-08T11:15:41.918Z,76.56
2019-03-08T11:18:49.222Z,76.83
2019-03-08T11:21:37.503Z,76.28
2019-03-08T11:24:26.071Z,75.95
2019-03-08T11:27:28.585Z,76.08
2019-03-08T11:29:54.477Z,76.53
2019-03-08T11:32:43.183Z,76.41
2019-03-08T11:35:31.532Z,75.95
2019-03-08T11:38:19.800Z,75.54
2019-03-08T11:41:08.175Z,76.74
2019-03-08T11:43:56.486Z,77.05
2019-03-08T11:46:30.738Z,76.60
2019-03-08T11:49:10.489Z,77.06
2019-03-08T11:51:58.861Z,76.23
2019-03-08T11:57:39.996Z,76.59
2019-03-08T12:00:25.291Z,76.59
2019-03-08T12:03:13.618Z,76.86
2019-03-08T12:05:49.965Z,76.67
2019-03-08T12:08:39.394Z,76.29
2019-03-08T12:11:33.443Z,77.36
2019-03-08T12:14:42.628Z,77.47
2019-03-08T12:17:49.978Z,77.54
2019-03-08T12:20:38.510Z,76.72
2019-03-08T12:23:26.903Z,77.79
2019-03-08T12:26:15.320Z,78.55
2019-03-08T12:31:57.374Z,76.86
2019-03-08T12:37:39.747Z,76.91
2019-03-08T12:40:29.304Z,77.91
2019-03-08T12:43:18.290Z,78.59
2019-03-08T12:46:06.636Z,79.54
2019-03-08T12:48:54.942Z,78.87
2019-03-08T12:51:43.222Z,79.69
2019-03-08T12:54:31.519Z,79.77
2019-03-08T12:57:22.901Z,78.90
2019-03-08T13:00:11.279Z,79.18
2019-03-08T13:05:43.486Z,76.99
2019-03-08T13:08:32.079Z,78.33
2019-03-08T13:11:12.655Z,79.89
2019-03-08T13:13:42.206Z,80.22
2019-03-08T13:16:11.895Z,80.56
2019-03-08T13:18:41.420Z,79.88
2019-03-08T13:21:10.870Z,78.93
2019-03-08T13:26:29.697Z,77.95
2019-03-08T13:28:59.256Z,78.85
2019-03-08T13:31:29.067Z,77.62
2019-03-08T13:36:34.073Z,78.05
2019-03-08T13:39:17.356Z,78.05
2019-03-08T13:41:46.782Z,79.19
2019-03-08T13:44:16.313Z,78.49
2019-03-08T13:47:04.750Z,78.44
2019-03-08T13:52:27.690Z,77.24
2019-03-08T13:55:17.107Z,77.54
2019-03-08T13:57:46.588Z,77.54
2019-03-08T14:00:16.616Z,77.45
2019-03-08T14:03:05.118Z,76.17
2019-03-08T14:05:35.504Z,75.25
2019-03-08T14:08:04.902Z,75.73
2019-03-08T14:10:35.128Z,75.73
2019-03-08T14:13:04.642Z,75.29
2019-03-08T14:15:34.076Z,74.69
2019-03-08T14:18:03.466Z,74.67
2019-03-08T14:20:37.862Z,75.41
2019-03-08T14:23:07.294Z,75.76
2019-03-08T14:25:37.206Z,74.50
2019-03-08T14:28:06.614Z,75.32
2019-03-08T14:33:18.166Z,76.95
2019-03-08T14:35:47.589Z,78.84
2019-03-08T14:38:16.970Z,78.67
2019-03-08T14:41:05.619Z,77.15
2019-03-08T14:43:54.467Z,76.55
2019-03-08T14:46:47.252Z,75.46
2019-03-08T14:49:19.327Z,75.10
2019-03-08T14:51:48.289Z,74.64
2019-03-08T14:54:18.991Z,75.80
2019-03-08T14:56:48.388Z,76.14
2019-03-08T14:59:18.004Z,76.06
2019-03-08T15:01:47.410Z,76.46
2019-03-08T15:04:17.331Z,77.22
2019-03-08T15:06:52.701Z,76.25
2019-03-08T15:09:22.417Z,76.25
2019-03-08T15:12:16.519Z,75.83
2019-03-08T15:14:46.818Z,75.41
2019-03-08T15:19:50.791Z,76.70
2019-03-08T15:22:34.047Z,77.21
2019-03-08T15:25:23.824Z,77.38
2019-03-08T15:30:42.432Z,78.18
2019-03-08T15:38:34.346Z,81.62
2019-03-08T15:41:03.870Z,80.48
2019-03-08T15:46:30.088Z,78.43
2019-03-08T15:48:59.634Z,78.43
2019-03-08T15:51:32.502Z,77.14
2019-03-08T15:59:12.317Z,76.40
2019-03-08T16:04:45.682Z,76.56
2019-03-08T16:07:13.158Z,77.04
2019-03-08T16:09:42.569Z,76.84
2019-03-08T16:12:12.692Z,77.67
2019-03-08T16:15:01.334Z,77.12
2019-03-08T16:17:30.840Z,77.12
2019-03-08T16:20:02.805Z,77.82
2019-03-08T16:22:31.795Z,78.07
2019-03-08T16:25:06.659Z,78.70
2019-03-08T16:27:46.228Z,77.79
2019-03-08T16:31:02.636Z,76.77
2019-03-08T16:33:50.695Z,75.55
2019-03-08T16:39:32.075Z,75.25
2019-03-08T16:42:20.214Z,75.08
2019-03-08T16:45:10.231Z,74.78
2019-03-08T16:47:58.893Z,74.78
2019-03-08T16:51:21.154Z,74.88
2019-03-08T16:53:56.111Z,75.06
2019-03-08T16:57:03.480Z,75.88
2019-03-08T17:02:46.525Z,76.38
2019-03-08T17:05:38.899Z,76.60
2019-03-08T17:08:27.536Z,77.54
2019-03-08T17:14:49.816Z,79.20
2019-03-08T17:20:19.001Z,81.11
2019-03-08T17:23:07.745Z,81.11
2019-03-08T17:25:56.109Z,81.96
2019-03-08T17:28:44.519Z,81.96
2019-03-08T17:31:28.748Z,82.13
2019-03-08T17:34:36.068Z,82.67
2019-03-08T17:40:13.135Z,82.33
2019-03-08T17:43:20.552Z,82.34
2019-03-08T17:46:29.985Z,82.79
2019-03-08T17:49:18.489Z,82.79
2019-03-08T17:52:07.346Z,82.76
2019-03-08T17:54:59.534Z,82.91
2019-03-08T17:57:50.428Z,82.91
2019-03-08T18:00:57.937Z,82.28
2019-03-08T18:04:01.048Z,82.01
2019-03-08T18:06:49.555Z,82.01
2019-03-08T18:09:37.848Z,81.19
2019-03-08T18:15:35.622Z,75.87
2019-03-08T18:18:43.135Z,73.94
2019-03-08T18:21:22.876Z,73.94
2019-03-08T18:24:30.190Z,71.91
2019-03-08T18:27:18.468Z,71.91
2019-03-08T18:30:09.499Z,69.19
2019-03-08T18:33:00.282Z,69.19
2019-03-08T18:35:48.610Z,67.94
2019-03-08T18:41:31.222Z,67.27
2019-03-08T18:44:19.537Z,68.84
2019-03-08T18:47:08.158Z,68.84
2019-03-08T18:49:56.456Z,68.94
2019-03-08T18:52:44.787Z,69.25
2019-03-08T18:55:33.303Z,69.19
2019-03-08T18:58:17.774Z,69.00
2019-03-08T19:00:55.597Z,69.38
2019-03-08T19:03:44.001Z,69.21
2019-03-08T19:06:32.979Z,69.45
2019-03-08T19:09:21.867Z,68.75
2019-03-08T19:12:10.160Z,69.12
2019-03-08T19:14:58.510Z,69.38
2019-03-08T19:17:47.056Z,69.09
2019-03-08T19:20:35.542Z,69.06
2019-03-08T19:23:23.854Z,69.01
2019-03-08T19:26:12.390Z,68.62
2019-03-08T19:29:19.886Z,68.57
2019-03-08T19:32:08.200Z,68.87
2019-03-08T19:35:09.125Z,69.27
2019-03-08T19:37:49.741Z,69.27
2019-03-08T19:40:38.165Z,69.27
2019-03-08T19:43:26.455Z,69.24
2019-03-08T19:46:14.941Z,69.24
2019-03-08T19:49:03.352Z,69.70
2019-03-08T19:51:51.772Z,69.95
2019-03-08T19:54:32.289Z,70.29
2019-03-08T19:57:21.261Z,69.84
2019-03-08T20:00:09.577Z,70.29
2019-03-08T20:05:52.010Z,69.85
2019-03-08T20:08:40.289Z,70.02
2019-03-08T20:11:40.398Z,70.01
2019-03-08T20:14:28.892Z,70.15
2019-03-08T20:17:29.492Z,70.03
2019-03-08T20:20:36.834Z,70.20
2019-03-08T20:26:13.415Z,70.34
2019-03-08T20:29:20.874Z,70.94
2019-03-08T20:35:26.786Z,70.79
2019-03-08T20:38:15.063Z,71.00
2019-03-08T20:41:05.115Z,70.85
2019-03-08T20:46:49.857Z,70.78
2019-03-08T20:49:19.345Z,70.96
2019-03-08T20:51:48.761Z,70.93
2019-03-08T20:54:18.205Z,71.01
2019-03-08T20:56:47.663Z,70.90
2019-03-08T20:59:17.085Z,70.95
2019-03-08T21:01:46.498Z,71.02
2019-03-08T21:04:15.999Z,70.98
2019-03-08T21:06:45.426Z,70.98
2019-03-08T21:09:34.209Z,70.64
2019-03-08T21:12:15.871Z,70.84
2019-03-08T21:17:20.502Z,70.76
2019-03-08T21:20:08.837Z,70.46
2019-03-08T21:22:38.940Z,70.58
2019-03-08T21:25:09.478Z,70.58
2019-03-08T21:27:39.509Z,70.50
2019-03-08T21:30:11.778Z,70.35
2019-03-08T21:32:41.286Z,69.94
2019-03-08T21:37:48.202Z,70.20
2019-03-08T21:40:29.408Z,70.06
2019-03-08T21:43:10.271Z,70.06
2019-03-08T21:45:40.645Z,70.06
2019-03-08T21:48:10.253Z,69.83
2019-03-08T21:50:41.539Z,70.32
2019-03-08T21:56:04.635Z,70.17
2019-03-08T21:58:34.834Z,70.17
2019-03-08T22:01:04.355Z,70.16
2019-03-08T22:03:33.762Z,70.20
2019-03-08T22:11:53.707Z,69.95
2019-03-08T22:14:23.423Z,69.55
2019-03-08T22:19:43.031Z,69.47
2019-03-08T22:22:12.441Z,69.47
2019-03-08T22:24:42.246Z,69.49
2019-03-08T22:27:11.700Z,69.69
2019-03-08T22:29:41.292Z,69.91
2019-03-08T22:32:32.767Z,69.87
2019-03-08T22:35:02.176Z,69.87
2019-03-08T22:37:31.586Z,69.78
2019-03-08T22:40:20.330Z,69.41
2019-03-08T22:42:50.051Z,69.41
2019-03-08T22:45:38.936Z,69.34
2019-03-08T22:48:20.521Z,69.62
2019-03-08T22:50:49.943Z,70.00
2019-03-08T22:53:19.343Z,70.00
2019-03-08T22:56:07.848Z,69.97
2019-03-08T22:58:38.151Z,69.97
2019-03-08T23:01:39.171Z,71.14
2019-03-08T23:04:20.552Z,71.62
2019-03-08T23:07:01.075Z,72.44
2019-03-08T23:09:30.781Z,73.09
2019-03-08T23:12:00.261Z,73.09
2019-03-08T23:14:30.327Z,74.14
2019-03-08T23:17:19.822Z,75.05
2019-03-08T23:19:49.508Z,75.99
2019-03-08T23:22:19.125Z,75.99
2019-03-08T23:25:07.780Z,76.52
2019-03-08T23:30:33.464Z,76.99
2019-03-08T23:33:02.982Z,76.99
2019-03-08T23:35:32.398Z,77.09
2019-03-08T23:38:02.049Z,77.50
2019-03-08T23:40:31.582Z,77.50
2019-03-08T23:43:20.091Z,77.37
2019-03-08T23:48:33.371Z,77.43
2019-03-08T23:51:02.896Z,77.66
2019-03-08T23:53:44.890Z,77.58
2019-03-08T23:56:34.599Z,77.51
2019-03-08T23:59:25.605Z,77.21
